Latest Weather Observations for Samuel Hill

IDQ60801

Issued at 11:02 pm EST Monday 24 April 2017 (issued every 30 minutes, with the page automatically refreshed every 10 minutes)

About weather observations | Map of weather stations | Latest weather observations for QLD | Other Formats
Station Details ID: 033308 Name: SAMUEL HILL AERO Lat: -22.74 Lon: 150.66 Height: 31.0 m
Data from the previous 72 hours. | See also: Recent months at Samuel Hill
Date/Time
EST
Temp
°C
App
Temp
°C
Dew
Point
°C
Rel
Hum
%
Delta-T
°C
Wind Press
QNH
hPa
Press
MSL
hPa
Rain since
9am
mm
Dir  Spd
km/h
Gust
km/h
Spd
kts
Gust
kts
24/11:00pm 17.8 20.1 16.7 93 0.7 CALM 0 2 0 1 1018.3 1018.2 0.2
24/10:30pm 17.9 20.1 16.6 92 0.8 CALM 0 0 0 0 1018.5 1018.4 0.2
24/10:00pm 18.1 20.3 16.6 91 0.9 CALM 0 0 0 0 1018.6 1018.5 0.2
24/09:30pm 18.6 21.0 17.1 91 0.9 CALM 0 0 0 0 1018.7 1018.6 0.2
24/09:00pm 18.6 21.0 16.9 90 1.0 CALM 0 0 0 0 1018.6 1018.5 0.2
24/08:30pm 19.5 21.0 17.6 89 1.2 SSE 6 7 3 4 1018.7 1018.6 0.2
24/08:00pm 20.0 21.6 18.3 90 1.1 SSE 7 9 4 5 1018.4 1018.3 0.2
24/07:30pm 20.4 22.2 18.2 87 1.4 ESE 6 7 3 4 1018.4 1018.3 0.2
24/07:00pm 20.9 22.2 18.5 86 1.5 SSE 9 11 5 6 1017.9 1017.8 0.2
24/06:30pm 21.2 22.5 18.4 84 1.7 SE 9 9 5 5 1017.9 1017.8 0.2
24/06:00pm 21.9 23.1 18.3 80 2.2 SE 9 11 5 6 1017.6 1017.5 0.2
24/05:30pm 22.8 23.6 18.1 75 2.9 SE 11 17 6 9 1017.4 1017.3 0.2
24/05:00pm 23.7 23.7 18.1 71 3.5 SE 15 22 8 12 1017.1 1017.0 0.2
24/04:30pm 24.5 24.2 18.2 68 4.0 SE 17 24 9 13 1017.0 1016.9 0.2
24/04:00pm 25.2 25.6 18.2 65 4.4 ESE 13 19 7 10 1016.8 1016.7 0.2
24/03:30pm 25.2 24.7 17.9 64 4.6 ESE 17 22 9 12 1016.6 1016.5 0.2
24/03:00pm 25.4 25.5 18.3 65 4.5 SE 15 20 8 11 1016.6 1016.5 0.2
24/02:30pm 25.7 25.9 17.6 61 5.1 ESE 13 22 7 12 1016.6 1016.5 0.2
24/02:00pm 25.9 25.5 18.1 62 4.9 SE 17 24 9 13 1016.8 1016.7 0.2
24/01:30pm 25.7 25.5 18.4 64 4.6 SE 17 28 9 15 1016.9 1016.8 0.2
24/01:00pm 25.9 25.6 18.3 63 4.8 ESE 17 26 9 14 1017.3 1017.2 0.2
24/12:30pm 26.2 26.3 19.1 65 4.6 SE 17 30 9 16 1017.7 1017.6 0.2
24/12:00pm 26.0 26.1 19.2 66 4.4 SE 17 28 9 15 1017.9 1017.8 0.2
24/11:30am 25.4 25.0 18.8 67 4.2 ESE 19 30 10 16 1018.3 1018.2 0.2
24/11:00am 25.0 25.2 19.4 71 3.6 SE 17 22 9 12 1018.6 1018.5 0.0
24/10:30am 24.3 24.8 20.0 77 2.8 SE 17 26 9 14 1019.0 1018.9 0.0
24/10:03am 23.7 23.9 19.4 77 2.8 SSE 17 24 9 13 1019.3 1019.2 0.0
24/10:00am 24.3 24.9 20.2 78 2.7 SSE 17 24 9 13 1019.3 1019.2 0.0
24/09:30am 22.6 23.4 19.9 85 1.7 SSE 15 20 8 11 1019.4 1019.3 0.0
24/09:29am 22.5 23.3 19.9 85 1.7 SSE 15 20 8 11 1019.4 1019.3 0.0
24/09:07am 21.8 22.9 19.7 88 1.3 SSE 13 20 7 11 1019.5 1019.4 0.0
24/09:00am 21.6 22.6 19.5 88 1.3 S 13 19 7 10 1019.4 1019.3 1.6
24/08:50am 21.8 23.2 19.5 87 1.5 SSE 11 17 6 9 1019.4 1019.3 1.6
24/08:30am 22.8 24.7 19.8 83 1.9 SE 9 15 5 8 1019.1 1019.0 1.4
24/08:00am 21.9 22.9 18.7 82 2.0 SSE 11 15 6 8 1018.9 1018.8 1.4
24/07:30am 21.2 21.7 18.4 84 1.7 SSE 13 17 7 9 1018.7 1018.6 1.4
24/07:00am 20.1 21.1 18.6 91 0.9 SSE 11 15 6 8 1018.5 1018.4 1.4
24/06:30am 20.0 20.6 18.5 91 0.9 SSE 13 15 7 8 1018.4 1018.3 1.4
24/06:00am 20.2 21.0 19.0 93 0.8 SSE 13 19 7 10 1017.9 1017.8 1.4
24/05:30am 19.8 21.2 18.6 93 0.7 SSE 9 15 5 8 1017.7 1017.6 1.4
24/05:00am 20.0 21.2 19.0 94 0.6 SSE 11 17 6 9 1017.5 1017.4 1.4
24/04:30am 19.8 21.6 18.8 94 0.6 S 7 11 4 6 1017.4 1017.3 1.4
24/04:00am 20.1 23.0 19.1 94 0.6 S 2 7 1 4 1017.4 1017.3 1.4
24/03:30am 20.4 21.7 19.4 94 0.6 SSE 11 15 6 8 1017.4 1017.3 1.4
24/03:00am 20.5 22.8 19.5 94 0.6 S 6 7 3 4 1017.7 1017.6 1.4
24/02:36am 20.9 23.2 19.9 94 0.6 S 7 9 4 5 1018.0 1017.9 1.4
24/02:30am 20.9 22.9 19.9 94 0.6 SSE 9 15 5 8 1018.0 1017.9 1.4
24/02:18am 20.8 23.1 19.8 94 0.6 ESE 7 11 4 6 1018.1 1018.0 1.2
24/02:00am 20.7 24.2 19.5 93 0.8 CALM 0 0 0 0 1018.2 1018.1 0.0
24/01:34am 20.8 23.0 19.6 93 0.8 SSE 7 9 4 5 1018.4 1018.3 0.0
24/01:30am 20.8 23.0 19.6 93 0.8 SSE 7 13 4 7 1018.4 1018.3 0.0
24/01:18am 20.8 22.6 19.6 93 0.8 ESE 9 15 5 8 1018.7 1018.6 0.0
24/01:00am 20.6 22.8 19.3 92 0.8 SSE 6 7 3 4 1018.7 1018.6 0.0
24/12:30am 20.6 22.6 19.1 91 0.9 SSE 7 9 4 5 1018.8 1018.7 0.0
24/12:00am 20.4 22.8 18.9 91 0.9 SE 4 11 2 6 1019.1 1019.0 0.0
 
Date/Time
EST
Temp
°C
App
Temp
°C
Dew
Point
°C
Rel
Hum
%
Delta-T
°C
Wind Press
QNH
hPa
Press
MSL
hPa
Rain since
9am
mm
Dir  Spd
km/h
Gust
km/h
Spd
kts
Gust
kts
23/11:30pm 20.6 23.4 18.9 90 1.1 E 2 6 1 3 1019.4 1019.3 0.0
23/11:00pm 20.6 22.3 18.5 88 1.3 SSE 7 9 4 5 1019.7 1019.6 0.0
23/10:30pm 21.0 22.4 18.6 86 1.5 S 9 11 5 6 1019.8 1019.7 0.0
23/10:00pm 20.9 22.6 18.5 86 1.5 S 7 9 4 5 1019.8 1019.7 0.0
23/09:30pm 21.3 23.3 18.7 85 1.6 SSW 6 7 3 4 1019.8 1019.7 0.0
23/09:00pm 21.9 23.6 18.5 81 2.1 S 7 9 4 5 1020.0 1019.9 0.0
23/08:30pm 22.1 23.2 18.1 78 2.5 ESE 9 13 5 7 1019.9 1019.8 0.0
23/08:00pm 22.1 23.6 18.9 82 2.0 SE 9 13 5 7 1019.7 1019.6 0.0
23/07:30pm 22.0 23.5 18.8 82 2.0 SE 9 11 5 6 1019.4 1019.3 0.0
23/07:00pm 21.9 24.1 19.5 86 1.5 SSE 7 9 4 5 1019.1 1019.0 0.0
23/06:30pm 22.0 23.9 19.0 83 1.9 SSE 7 13 4 7 1018.6 1018.5 0.0
23/06:00pm 22.5 24.1 19.1 81 2.2 SE 9 13 5 7 1018.3 1018.2 0.0
23/05:30pm 22.9 23.3 19.1 79 2.4 SE 15 24 8 13 1018.1 1018.0 0.0
23/05:00pm 23.3 23.7 19.0 77 2.7 SE 15 20 8 11 1017.9 1017.8 0.0
23/04:30pm 23.9 23.6 19.2 75 3.0 SE 19 30 10 16 1017.8 1017.7 0.0
23/04:00pm 24.4 25.1 19.7 75 3.0 SE 15 24 8 13 1017.7 1017.6 0.0
23/03:30pm 24.7 24.8 19.1 71 3.6 SE 17 28 9 15 1017.6 1017.5 0.0
23/03:00pm 25.1 25.0 19.5 71 3.6 SE 19 30 10 16 1017.7 1017.6 0.0
23/02:30pm 25.5 25.2 19.2 68 4.0 ESE 19 30 10 16 1018.0 1017.9 0.0
23/02:00pm 25.2 24.7 19.1 69 3.9 SE 20 30 11 16 1017.9 1017.8 0.0
23/01:30pm 24.8 24.3 19.2 71 3.6 SE 20 33 11 18 1018.1 1018.0 0.0
23/01:00pm 24.6 24.6 19.0 71 3.6 SE 17 24 9 13 1018.3 1018.2 0.0
23/12:30pm 24.6 24.0 18.5 69 3.9 SE 19 28 10 15 1018.5 1018.4 0.0
23/12:00pm 24.8 24.3 19.2 71 3.6 ESE 20 30 11 16 1018.8 1018.7 0.0
23/11:30am 24.1 23.3 18.1 69 3.8 SE 19 30 10 16 1019.2 1019.1 0.0
23/11:00am 23.5 22.8 18.6 74 3.1 SSE 20 30 11 16 1019.7 1019.6 0.0
23/10:30am 24.3 24.5 19.4 74 3.1 SSE 17 24 9 13 1020.0 1019.9 0.0
23/10:00am 23.7 24.5 19.0 75 3.0 SE 13 22 7 12 1020.1 1020.0 0.0
23/09:30am 23.1 22.9 18.6 76 2.8 SSE 17 24 9 13 1020.2 1020.1 0.0
23/09:00am 22.6 22.8 18.6 78 2.5 SE 15 24 8 13 1020.2 1020.1 14.6
23/08:30am 22.5 22.7 18.5 78 2.5 SSE 15 22 8 12 1020.1 1020.0 14.6
23/08:00am 20.7 20.5 17.5 82 2.0 SSE 15 22 8 12 1020.0 1019.9 14.6
23/07:30am 20.6 20.7 17.4 82 2.0 S 13 22 7 12 1019.6 1019.5 14.6
23/07:00am 20.5 21.6 17.9 85 1.6 SSE 9 15 5 8 1019.2 1019.1 14.6
23/06:30am 20.1 21.2 17.9 87 1.4 SSE 9 19 5 10 1019.0 1018.9 14.6
23/06:00am 20.1 20.8 17.9 87 1.4 SSE 11 19 6 10 1018.7 1018.6 14.6
23/05:30am 20.3 21.5 18.2 88 1.3 SSE 9 15 5 8 1018.3 1018.2 14.6
23/05:00am 20.5 21.0 18.4 88 1.3 SSE 13 20 7 11 1018.3 1018.2 14.6
23/04:30am 20.6 22.0 18.7 89 1.2 SSE 9 17 5 9 1018.2 1018.1 14.6
23/04:23am 20.7 22.2 18.8 89 1.2 SSE 9 15 5 8 1018.2 1018.1 14.6
23/04:00am 20.9 22.0 18.8 88 1.3 SSE 11 17 6 9 1018.3 1018.2 14.6
23/03:30am 21.4 21.6 18.6 84 1.8 SSE 15 22 8 12 1018.3 1018.2 14.6
23/03:00am 21.5 22.3 18.1 81 2.1 SE 11 19 6 10 1018.2 1018.1 14.4
23/02:30am 21.4 22.1 18.0 81 2.1 SE 11 17 6 9 1018.3 1018.2 14.4
23/02:00am 21.7 21.0 18.3 81 2.1 ESE 19 32 10 17 1018.5 1018.4 14.4
23/01:30am 21.7 21.5 18.5 82 2.0 ESE 17 26 9 14 1018.6 1018.5 14.4
23/01:00am 21.7 21.9 18.5 82 2.0 ESE 15 24 8 13 1018.9 1018.8 14.4
23/12:30am 21.4 21.6 18.6 84 1.8 SE 15 20 8 11 1019.2 1019.1 14.4
23/12:00am 21.6 21.6 19.0 85 1.6 ESE 17 28 9 15 1019.2 1019.1 14.4
 
Date/Time
EST
Temp
°C
App
Temp
°C
Dew
Point
°C
Rel
Hum
%
Delta-T
°C
Wind Press
QNH
hPa
Press
MSL
hPa
Rain since
9am
mm
Dir  Spd
km/h
Gust
km/h
Spd
kts
Gust
kts
22/11:30pm 21.5 21.2 19.6 89 1.2 SE 20 32 11 17 1019.4 1019.3 14.4
22/11:00pm 20.9 22.7 19.6 92 0.8 SE 9 11 5 6 1019.6 1019.5 14.2
22/10:30pm 20.8 23.0 19.6 93 0.8 S 7 9 4 5 1019.7 1019.6 14.0
22/10:00pm 20.9 23.7 19.6 92 0.8 SSW 4 7 2 4 1020.1 1020.0 14.0
22/09:55pm 20.9 23.1 19.6 92 0.8 SSE 7 9 4 5 1020.1 1020.0 14.0
22/09:33pm 21.0 22.9 19.7 92 0.8 ESE 9 13 5 7 1020.4 1020.3 12.4
22/09:30pm 21.0 22.9 19.7 92 0.8 ESE 9 11 5 6 1020.4 1020.3 11.2
22/09:00pm 20.9 22.3 19.6 92 0.8 S 11 17 6 9 1020.0 1019.9 10.6
22/08:30pm 20.6 22.7 19.4 93 0.8 S 7 9 4 5 1020.0 1019.9 10.6
22/08:06pm 20.5 22.7 19.3 93 0.8 SW 6 11 3 6 1019.8 1019.7 10.6
22/08:00pm 20.7 23.0 19.5 93 0.8 SSW 6 11 3 6 1019.7 1019.6 10.6
22/07:58pm 20.7 23.4 19.5 93 0.8 S 4 11 2 6 1019.7 1019.6 10.6
22/07:52pm 20.7 23.8 19.4 92 0.8 SE 2 9 1 5 1019.6 1019.5 10.6
22/07:31pm 20.6 21.5 19.3 92 0.8 SE 13 20 7 11 1019.6 1019.5 8.6
22/07:30pm 20.6 21.5 19.3 92 0.8 SE 13 20 7 11 1019.5 1019.4 8.4
22/07:00pm 20.4 22.0 19.1 92 0.8 ESE 9 17 5 9 1019.3 1019.2 6.6
22/06:36pm 20.4 21.0 18.7 90 1.1 ENE 13 19 7 10 1019.1 1019.0 4.4
22/06:30pm 20.4 21.7 18.5 89 1.2 ENE 9 19 5 10 1019.1 1019.0 4.2
22/06:00pm 21.0 21.7 18.9 88 1.3 ENE 13 20 7 11 1019.1 1019.0 4.0
22/05:30pm 21.4 23.1 18.6 84 1.8 SSE 7 11 4 6 1018.8 1018.7 3.8
22/05:00pm 21.5 22.1 18.5 83 1.9 SSE 13 20 7 11 1018.7 1018.6 3.8
22/04:30pm 22.1 21.5 18.9 82 2.0 SE 20 32 11 17 1018.3 1018.2 3.8
22/04:00pm 23.0 23.8 19.8 82 2.1 SE 15 24 8 13 1018.1 1018.0 3.8
22/03:30pm 22.0 23.0 20.3 90 1.1 SE 15 24 8 13 1018.0 1017.9 3.8
22/03:20pm 21.8 22.8 20.3 91 1.0 SE 15 24 8 13 1017.9 1017.8 3.8
22/03:00pm 21.0 20.2 18.4 85 1.6 ESE 20 41 11 22 1018.1 1018.0 3.4
22/02:56pm 21.6 21.0 18.4 82 2.0 SE 19 41 10 22 1018.0 1017.9 1.2
22/02:30pm 24.1 23.7 19.0 73 3.2 SE 19 32 10 17 1017.9 1017.8 0.0
22/02:00pm 24.8 23.9 19.0 70 3.7 SE 22 35 12 19 1017.9 1017.8 0.0
22/01:30pm 24.7 23.9 19.3 72 3.5 SE 22 32 12 17 1018.0 1017.9 0.0
22/01:00pm 24.8 23.4 18.7 69 3.9 SE 24 33 13 18 1018.3 1018.2 0.0
22/12:30pm 24.1 22.9 18.5 71 3.5 SE 22 37 12 20 1018.6 1018.5 0.0
22/12:00pm 25.3 24.6 19.4 70 3.8 SE 22 32 12 17 1019.0 1018.9 0.0
22/11:30am 24.3 22.6 18.2 68 3.8 SE 24 35 13 19 1019.2 1019.1 0.0
22/11:00am 24.0 23.4 18.4 71 3.5 SSE 19 32 10 17 1019.8 1019.7 0.0
22/10:30am 23.8 23.5 19.1 75 3.0 SE 19 32 10 17 1020.2 1020.1 0.0
22/10:00am 23.1 22.4 18.6 76 2.8 SSE 20 30 11 16 1020.3 1020.2 0.0
22/09:30am 23.4 21.9 18.5 74 3.1 SSE 24 39 13 21 1020.4 1020.3 0.0
22/09:00am 22.3 21.5 18.1 77 2.6 SSE 19 28 10 15 1020.4 1020.3 0.6
22/08:30am 22.0 22.0 18.0 78 2.5 SSE 15 24 8 13 1020.4 1020.3 0.6
22/08:00am 22.1 22.1 18.1 78 2.5 SE 15 22 8 12 1020.2 1020.1 0.6
22/07:30am 20.8 21.0 17.6 82 2.0 SSE 13 20 7 11 1019.7 1019.6 0.6
22/07:00am 20.5 21.6 17.9 85 1.6 ESE 9 11 5 6 1019.4 1019.3 0.6
22/06:30am 20.4 20.6 17.6 84 1.7 SSE 13 20 7 11 1019.2 1019.1 0.6
22/06:00am 20.5 20.7 17.7 84 1.7 SSE 13 22 7 12 1018.8 1018.7 0.6
22/05:30am 20.5 20.4 17.9 85 1.6 SSE 15 26 8 14 1018.6 1018.5 0.6
22/05:00am 20.3 21.5 18.2 88 1.3 SE 9 15 5 8 1018.5 1018.4 0.6
22/04:30am 20.1 21.0 18.4 90 1.1 SSE 11 17 6 9 1018.3 1018.2 0.6
22/04:16am 20.0 20.6 18.5 91 0.9 SSE 13 17 7 9 1018.3 1018.2 0.6
22/04:06am 20.0 21.0 18.7 92 0.8 SE 11 15 6 8 1018.3 1018.2 0.6
22/04:00am 20.0 21.4 18.7 92 0.8 ESE 9 13 5 7 1018.3 1018.2 0.6
22/03:45am 19.9 21.6 18.4 91 0.9 ESE 7 11 4 6 1018.4 1018.3 0.6
22/03:30am 20.0 21.3 18.5 91 0.9 SSE 9 13 5 7 1018.5 1018.4 0.6
22/03:19am 20.0 21.3 18.5 91 0.9 E 9 13 5 7 1018.5 1018.4 0.6
22/03:00am 19.8 20.2 18.1 90 1.0 SSE 13 20 7 11 1018.6 1018.5 0.2
22/02:30am 19.5 20.6 18.0 91 0.9 S 9 13 5 7 1018.7 1018.6 0.2
22/02:00am 19.8 20.7 18.3 91 0.9 SSE 11 17 6 9 1018.8 1018.7 0.2
22/01:30am 20.0 20.8 18.1 89 1.2 SSE 11 17 6 9 1019.1 1019.0 0.2
22/01:00am 20.3 20.5 18.6 90 1.1 SSE 15 20 8 11 1019.6 1019.5 0.2
22/12:30am 20.5 20.8 18.8 90 1.1 SSE 15 30 8 16 1019.7 1019.6 0.2
22/12:00am 20.3 19.8 17.7 85 1.6 SE 17 24 9 13 1020.3 1020.2 0.2
 
Date/Time
EST
Temp
°C
App
Temp
°C
Dew
Point
°C
Rel
Hum
%
Delta-T
°C
Wind Press
QNH
hPa
Press
MSL
hPa
Rain since
9am
mm
Dir  Spd
km/h
Gust
km/h
Spd
kts
Gust
kts
21/11:30pm 21.1 20.6 17.9 82 2.0 SE 17 24 9 13 1020.3 1020.2 0.2

Other Formats:

Comma delimited format used in spreadsheet applications
http://www.bom.gov.au/fwo/IDQ60801/IDQ60801.94370.axf

JavaScript Object Notation format (JSON) in row-major order
http://www.bom.gov.au/fwo/IDQ60801/IDQ60801.94370.json